createdAt,value
2023-01-28T00:00:34.641Z,98.67
2023-01-28T00:03:01.155Z,98.72
2023-01-28T00:05:29.782Z,99.61
2023-01-28T00:07:57.675Z,99.68
2023-01-28T00:10:24.219Z,99.56
2023-01-28T00:12:50.928Z,98.87
2023-01-28T00:15:17.447Z,98.62
2023-01-28T00:17:43.824Z,99.00
2023-01-28T00:20:10.776Z,98.77
2023-01-28T00:22:37.185Z,99.08
2023-01-28T00:25:03.679Z,98.65
2023-01-28T00:27:30.956Z,98.39
2023-01-28T00:29:57.357Z,98.33
2023-01-28T00:32:23.738Z,98.23
2023-01-28T00:34:50.203Z,98.02
2023-01-28T00:37:16.576Z,98.00
2023-01-28T00:39:43.045Z,98.08
2023-01-28T00:42:09.438Z,99.01
2023-01-28T00:44:36.474Z,99.14
2023-01-28T00:47:02.894Z,99.63
2023-01-28T00:49:29.458Z,99.22
2023-01-28T00:51:55.826Z,99.75
2023-01-28T00:54:22.236Z,99.43
2023-01-28T00:56:48.628Z,100.00
2023-01-28T00:59:15.294Z,100.00
2023-01-28T01:01:42.025Z,100.00
2023-01-28T01:04:08.493Z,100.00
2023-01-28T01:06:37.679Z,99.98
2023-01-28T01:09:08.441Z,100.00
2023-01-28T01:11:35.729Z,100.00
2023-01-28T01:14:04.084Z,100.00
2023-01-28T01:16:33.367Z,100.00
2023-01-28T01:19:00.280Z,100.00
2023-01-28T01:21:28.632Z,100.00
2023-01-28T01:23:55.721Z,100.00
2023-01-28T01:26:22.655Z,100.00
2023-01-28T01:28:51.246Z,99.88
2023-01-28T01:31:19.654Z,99.45
2023-01-28T01:33:47.963Z,100.00
2023-01-28T01:36:17.094Z,99.58
2023-01-28T01:38:43.451Z,98.94
2023-01-28T01:41:22.597Z,100.00
2023-01-28T01:43:53.840Z,100.00
2023-01-28T01:46:33.912Z,100.00
2023-01-28T01:49:12.270Z,100.00
2023-01-28T01:51:39.332Z,100.00
2023-01-28T01:54:06.422Z,99.90
2023-01-28T01:56:37.749Z,100.00
2023-01-28T01:59:05.569Z,100.00
2023-01-28T02:01:32.674Z,99.85
2023-01-28T02:04:09.020Z,100.00
2023-01-28T02:06:37.718Z,99.28
2023-01-28T02:09:21.796Z,99.54
2023-01-28T02:11:48.739Z,99.67
2023-01-28T02:14:29.426Z,99.91
2023-01-28T02:16:57.793Z,99.15
2023-01-28T02:19:30.504Z,99.26
2023-01-28T02:22:05.615Z,99.57
2023-01-28T02:24:46.990Z,99.26
2023-01-28T02:27:13.357Z,98.81
2023-01-28T02:29:50.899Z,99.21
2023-01-28T02:32:27.504Z,99.16
2023-01-28T02:35:06.954Z,98.84
2023-01-28T02:37:43.716Z,98.80
2023-01-28T02:40:14.851Z,98.50
2023-01-28T02:42:41.629Z,99.18
2023-01-28T02:46:02.327Z,99.07
2023-01-28T02:48:28.789Z,99.30
2023-01-28T02:51:21.337Z,99.26
2023-01-28T02:54:03.765Z,98.62
2023-01-28T02:56:38.750Z,99.30
2023-01-28T02:59:34.201Z,99.09
2023-01-28T03:02:32.265Z,99.46
2023-01-28T03:05:10.574Z,99.52
2023-01-28T03:07:39.261Z,99.76
2023-01-28T03:10:11.961Z,99.87
2023-01-28T03:13:00.550Z,99.71
2023-01-28T03:15:51.331Z,99.17
2023-01-28T03:18:42.624Z,99.94
2023-01-28T03:21:33.301Z,100.00
2023-01-28T03:24:30.447Z,100.00
2023-01-28T03:27:29.353Z,100.00
2023-01-28T03:30:18.211Z,100.00
2023-01-28T03:33:03.944Z,100.00
2023-01-28T03:35:52.725Z,100.00
2023-01-28T03:38:22.928Z,100.00
2023-01-28T03:40:57.774Z,100.00
2023-01-28T03:43:24.493Z,100.00
2023-01-28T03:45:51.557Z,100.00
2023-01-28T03:48:23.490Z,99.95
2023-01-28T03:50:50.945Z,99.26
2023-01-28T03:53:18.534Z,99.46
2023-01-28T03:55:47.009Z,98.92
2023-01-28T03:58:14.510Z,98.81
2023-01-28T04:00:42.138Z,99.61
2023-01-28T04:03:17.883Z,99.81
2023-01-28T04:05:45.557Z,99.97
2023-01-28T04:08:12.216Z,99.96
2023-01-28T04:10:39.727Z,100.00
2023-01-28T04:13:07.242Z,100.00
2023-01-28T04:15:34.002Z,100.00
2023-01-28T04:18:00.893Z,100.00
2023-01-28T04:20:27.290Z,99.48
2023-01-28T04:22:53.698Z,99.86
2023-01-28T04:25:20.108Z,100.00
2023-01-28T04:27:46.487Z,100.00
2023-01-28T04:30:12.939Z,99.94
2023-01-28T04:32:39.440Z,99.41
2023-01-28T04:35:06.205Z,99.28
2023-01-28T04:37:32.600Z,99.72
2023-01-28T04:39:59.067Z,99.14
2023-01-28T04:42:25.453Z,98.17
2023-01-28T04:44:51.844Z,98.27
2023-01-28T04:47:19.866Z,97.46
2023-01-28T04:49:46.283Z,97.04
2023-01-28T04:52:12.682Z,97.75
2023-01-28T04:54:39.155Z,97.64
2023-01-28T04:57:05.673Z,97.50
2023-01-28T04:59:32.110Z,97.77
2023-01-28T05:01:58.583Z,97.79
2023-01-28T05:04:25.040Z,97.76
2023-01-28T05:06:51.415Z,98.44
2023-01-28T05:09:17.857Z,98.03
2023-01-28T05:11:44.279Z,97.73
2023-01-28T05:14:10.737Z,98.10
2023-01-28T05:16:37.140Z,97.49
2023-01-28T05:19:03.647Z,97.93
2023-01-28T05:21:30.013Z,97.77
2023-01-28T05:23:56.418Z,98.32
2023-01-28T05:26:22.838Z,97.61
2023-01-28T05:28:49.222Z,97.64
2023-01-28T05:31:15.562Z,97.59
2023-01-28T05:33:41.886Z,97.22
2023-01-28T05:36:08.322Z,97.32
2023-01-28T05:38:34.864Z,97.83
2023-01-28T05:41:01.234Z,97.98
2023-01-28T05:43:28.652Z,97.68
2023-01-28T05:45:55.093Z,97.68
2023-01-28T05:48:21.570Z,98.19
2023-01-28T05:50:48.092Z,98.53
2023-01-28T05:53:14.587Z,98.17
2023-01-28T05:55:40.923Z,98.61
2023-01-28T05:58:07.350Z,98.34
2023-01-28T06:00:33.747Z,98.32
2023-01-28T06:03:00.122Z,98.17
2023-01-28T06:05:26.523Z,98.50
2023-01-28T06:07:53.063Z,98.51
2023-01-28T06:10:19.461Z,98.16
2023-01-28T06:12:45.906Z,97.69
2023-01-28T06:15:12.349Z,98.13
2023-01-28T06:17:38.931Z,97.53
2023-01-28T06:20:05.653Z,97.47
2023-01-28T06:22:32.034Z,97.54
2023-01-28T06:24:58.382Z,97.30
2023-01-28T06:27:24.791Z,97.57
2023-01-28T06:29:51.186Z,97.38
2023-01-28T06:32:17.647Z,96.69
2023-01-28T06:34:44.033Z,96.34
2023-01-28T06:37:13.416Z,96.19
2023-01-28T06:39:39.858Z,95.42
2023-01-28T06:42:06.355Z,95.90
2023-01-28T06:44:32.814Z,95.02
2023-01-28T06:46:59.165Z,95.52
2023-01-28T06:49:25.597Z,95.45
2023-01-28T06:51:52.577Z,95.30
2023-01-28T06:54:19.026Z,94.32
2023-01-28T06:56:45.511Z,94.64
2023-01-28T06:59:11.941Z,94.23
2023-01-28T07:01:38.397Z,94.21
2023-01-28T07:04:04.956Z,93.89
2023-01-28T07:06:31.321Z,94.00
2023-01-28T07:08:57.657Z,94.94
2023-01-28T07:11:24.029Z,94.52
2023-01-28T07:13:50.697Z,95.18
2023-01-28T07:16:17.409Z,95.19
2023-01-28T07:18:43.833Z,95.71
2023-01-28T07:21:10.260Z,95.51
2023-01-28T07:23:36.799Z,95.76
2023-01-28T07:26:04.596Z,95.80
2023-01-28T07:28:31.598Z,95.81
2023-01-28T07:30:58.076Z,96.04
2023-01-28T07:33:24.895Z,95.46
2023-01-28T07:35:51.378Z,94.81
2023-01-28T07:38:17.801Z,94.74
2023-01-28T07:40:45.309Z,95.29
2023-01-28T07:43:11.779Z,95.21
2023-01-28T07:45:38.430Z,94.79
2023-01-28T07:48:07.349Z,94.17
2023-01-28T07:50:36.343Z,94.01
2023-01-28T07:53:05.303Z,93.83
2023-01-28T07:55:32.134Z,93.72
2023-01-28T07:58:00.170Z,94.07
2023-01-28T08:00:29.324Z,94.40
2023-01-28T08:03:01.126Z,94.02
2023-01-28T08:05:43.357Z,95.02
2023-01-28T08:08:10.871Z,94.50
2023-01-28T08:10:37.927Z,94.87
2023-01-28T08:13:04.760Z,93.98
2023-01-28T08:15:34.076Z,94.10
2023-01-28T08:18:01.655Z,94.36
2023-01-28T08:20:29.096Z,93.98
2023-01-28T08:23:14.992Z,94.27
2023-01-28T08:25:41.487Z,94.92
2023-01-28T08:28:08.827Z,95.01
2023-01-28T08:30:37.795Z,95.35
2023-01-28T08:33:06.121Z,95.37
2023-01-28T08:35:33.285Z,95.28
2023-01-28T08:38:01.315Z,95.71
2023-01-28T08:40:28.321Z,96.11
2023-01-28T08:42:55.445Z,96.01
2023-01-28T08:45:27.306Z,96.29
2023-01-28T08:47:59.646Z,95.80
2023-01-28T08:50:29.592Z,96.65
2023-01-28T08:52:57.873Z,96.29
2023-01-28T08:55:25.080Z,95.66
2023-01-28T08:57:51.524Z,96.15
2023-01-28T09:00:18.493Z,96.41
2023-01-28T09:02:45.054Z,96.37
2023-01-28T09:05:11.709Z,96.93
2023-01-28T09:07:39.069Z,95.98
2023-01-28T09:10:06.259Z,95.07
2023-01-28T09:12:33.075Z,95.39
2023-01-28T09:14:59.545Z,95.50
2023-01-28T09:17:25.937Z,95.12
2023-01-28T09:19:52.335Z,95.08
2023-01-28T09:22:18.749Z,94.47
2023-01-28T09:24:45.154Z,95.53
2023-01-28T09:27:11.571Z,94.95
2023-01-28T09:29:38.705Z,94.60
2023-01-28T09:32:07.123Z,95.04
2023-01-28T09:34:33.919Z,94.86
2023-01-28T09:37:00.675Z,95.75
2023-01-28T09:39:28.499Z,96.27
2023-01-28T09:42:06.559Z,96.05
2023-01-28T09:44:49.388Z,94.32
2023-01-28T09:47:24.068Z,94.79
2023-01-28T09:49:53.389Z,94.13
2023-01-28T09:52:23.409Z,93.99
2023-01-28T09:54:58.539Z,92.58
2023-01-28T09:57:31.261Z,91.85
2023-01-28T09:59:58.679Z,92.37
2023-01-28T10:02:36.491Z,92.45
2023-01-28T10:05:24.711Z,91.65
2023-01-28T10:08:17.575Z,91.39
2023-01-28T10:10:55.546Z,91.05
2023-01-28T10:13:48.074Z,92.55
2023-01-28T10:16:38.445Z,92.03
2023-01-28T10:19:17.187Z,91.10
2023-01-28T10:21:58.868Z,91.53
2023-01-28T10:24:35.763Z,91.21
2023-01-28T10:27:09.803Z,91.33
2023-01-28T10:29:36.753Z,92.07
2023-01-28T10:32:13.769Z,91.11
2023-01-28T10:34:40.246Z,91.01
2023-01-28T10:37:06.731Z,91.00
2023-01-28T10:39:33.910Z,91.24
2023-01-28T10:42:00.304Z,90.86
2023-01-28T10:44:42.264Z,91.20
2023-01-28T10:47:16.706Z,90.59
2023-01-28T10:49:53.127Z,90.12
2023-01-28T10:52:19.494Z,90.44
2023-01-28T10:54:46.037Z,90.48
2023-01-28T10:57:18.898Z,90.00
2023-01-28T10:59:45.763Z,89.94
2023-01-28T11:02:24.087Z,89.86
2023-01-28T11:05:01.175Z,90.74
2023-01-28T11:07:27.654Z,88.99
2023-01-28T11:09:54.041Z,88.84
2023-01-28T11:12:29.686Z,89.42
2023-01-28T11:15:01.015Z,89.72
2023-01-28T11:17:30.912Z,90.41
2023-01-28T11:20:00.889Z,88.90
2023-01-28T11:22:33.032Z,90.45
2023-01-28T11:25:19.331Z,89.94
2023-01-28T11:27:51.385Z,90.02
2023-01-28T11:30:28.961Z,88.56
2023-01-28T11:33:17.614Z,88.73
2023-01-28T11:35:56.451Z,88.28
2023-01-28T11:38:26.348Z,88.03
2023-01-28T11:40:55.314Z,88.25
2023-01-28T11:43:23.927Z,88.40
2023-01-28T11:46:27.981Z,88.60
2023-01-28T11:49:19.714Z,87.34
2023-01-28T11:52:05.044Z,88.34
2023-01-28T11:55:11.073Z,88.64
2023-01-28T11:57:49.610Z,88.00
2023-01-28T12:00:32.784Z,88.73
2023-01-28T12:03:20.369Z,88.61
2023-01-28T12:05:51.964Z,88.61
2023-01-28T12:08:25.710Z,87.15
2023-01-28T12:11:10.744Z,87.51
2023-01-28T12:13:40.164Z,88.05
2023-01-28T12:16:25.330Z,87.76
2023-01-28T12:19:23.564Z,88.22
2023-01-28T12:22:07.040Z,87.67
2023-01-28T12:25:21.029Z,88.24
2023-01-28T12:28:02.925Z,88.80
2023-01-28T12:30:41.116Z,89.32
2023-01-28T12:33:10.361Z,88.69
2023-01-28T12:36:18.279Z,88.90
2023-01-28T12:38:53.162Z,90.03
2023-01-28T12:41:28.214Z,88.38
2023-01-28T12:44:02.328Z,88.09
2023-01-28T12:46:42.795Z,89.06
2023-01-28T12:49:16.927Z,88.80
2023-01-28T12:51:49.084Z,88.37
2023-01-28T12:54:38.140Z,88.21
2023-01-28T12:57:04.752Z,87.19
2023-01-28T12:59:39.685Z,88.21
2023-01-28T13:02:12.100Z,89.08
2023-01-28T13:05:03.292Z,88.64
2023-01-28T13:07:57.174Z,88.61
2023-01-28T13:10:35.326Z,88.10
2023-01-28T13:13:03.403Z,87.94
2023-01-28T13:15:30.847Z,88.45
2023-01-28T13:18:03.360Z,88.71
2023-01-28T13:20:59.224Z,88.10
2023-01-28T13:23:31.984Z,88.54
2023-01-28T13:26:10.508Z,88.55
2023-01-28T13:28:37.077Z,89.53
2023-01-28T13:31:17.476Z,88.30
2023-01-28T13:33:54.374Z,88.89
2023-01-28T13:36:44.696Z,89.03
2023-01-28T13:39:17.031Z,89.19
2023-01-28T13:41:49.149Z,89.36
2023-01-28T13:44:18.498Z,88.28
2023-01-28T13:46:44.960Z,88.00
2023-01-28T13:49:17.010Z,89.04
2023-01-28T13:52:01.235Z,88.39
2023-01-28T13:54:29.379Z,88.36
2023-01-28T13:56:58.695Z,87.47
2023-01-28T13:59:40.946Z,87.23
2023-01-28T14:02:17.428Z,87.31
2023-01-28T14:04:58.702Z,87.48
2023-01-28T14:07:31.103Z,87.61
2023-01-28T14:10:00.499Z,87.65
2023-01-28T14:13:01.021Z,86.69
2023-01-28T14:15:55.476Z,87.15
2023-01-28T14:18:29.529Z,87.03
2023-01-28T14:21:00.601Z,87.56
2023-01-28T14:23:30.999Z,87.23
2023-01-28T14:26:18.851Z,86.10
2023-01-28T14:29:20.362Z,86.19
2023-01-28T14:31:47.592Z,85.76
2023-01-28T14:34:31.895Z,86.08
2023-01-28T14:37:20.939Z,86.24
2023-01-28T14:39:59.893Z,84.97
2023-01-28T14:42:30.927Z,84.94
2023-01-28T14:45:09.684Z,85.66
2023-01-28T14:48:00.785Z,84.63
2023-01-28T14:50:47.834Z,84.32
2023-01-28T14:53:33.114Z,84.11
2023-01-28T14:56:23.363Z,83.81
2023-01-28T14:59:04.524Z,83.55
2023-01-28T15:01:31.473Z,83.32
2023-01-28T15:03:58.256Z,82.87
2023-01-28T15:06:35.512Z,82.86
2023-01-28T15:09:11.994Z,82.73
2023-01-28T15:11:41.386Z,83.45
2023-01-28T15:14:25.661Z,83.47
2023-01-28T15:16:52.295Z,82.21
2023-01-28T15:19:27.382Z,82.44
2023-01-28T15:21:56.867Z,82.54
2023-01-28T15:24:23.875Z,83.31
2023-01-28T15:26:50.382Z,81.89
2023-01-28T15:29:27.046Z,81.74
2023-01-28T15:31:53.684Z,81.71
2023-01-28T15:34:20.680Z,82.66
2023-01-28T15:36:49.684Z,82.68
2023-01-28T15:39:18.690Z,82.34
2023-01-28T15:41:50.134Z,81.17
2023-01-28T15:44:19.278Z,82.17
2023-01-28T15:46:45.872Z,80.07
2023-01-28T15:49:17.808Z,80.59
2023-01-28T15:51:50.861Z,81.00
2023-01-28T15:54:17.969Z,81.59
2023-01-28T15:56:44.628Z,82.32
2023-01-28T15:59:25.388Z,83.77
2023-01-28T16:01:52.704Z,81.65
2023-01-28T16:04:28.386Z,81.16
2023-01-28T16:06:58.300Z,81.31
2023-01-28T16:09:33.774Z,80.11
2023-01-28T16:12:07.329Z,79.86
2023-01-28T16:14:46.559Z,82.17
2023-01-28T16:17:22.936Z,82.24
2023-01-28T16:19:59.795Z,82.61
2023-01-28T16:22:34.895Z,83.21
2023-01-28T16:25:01.849Z,82.54
2023-01-28T16:27:31.225Z,82.23
2023-01-28T16:29:57.677Z,81.85
2023-01-28T16:32:33.128Z,81.41
2023-01-28T16:35:00.726Z,81.38
2023-01-28T16:40:00.420Z,81.86
2023-01-28T16:42:28.443Z,81.93
2023-01-28T16:44:54.798Z,80.34
2023-01-28T16:47:21.140Z,81.63
2023-01-28T16:49:47.621Z,80.68
2023-01-28T16:52:14.213Z,79.53
2023-01-28T16:54:43.325Z,79.52
2023-01-28T16:57:14.007Z,79.09
2023-01-28T16:59:40.365Z,79.85
2023-01-28T17:02:06.795Z,79.28
2023-01-28T17:04:33.248Z,78.99
2023-01-28T17:06:59.595Z,81.00
2023-01-28T17:09:26.098Z,81.74
2023-01-28T17:11:52.490Z,81.45
2023-01-28T17:14:18.846Z,78.83
2023-01-28T17:16:45.210Z,80.29
2023-01-28T17:19:11.587Z,79.25
2023-01-28T17:21:38.016Z,81.02
2023-01-28T17:24:05.068Z,82.06
2023-01-28T17:26:31.592Z,82.32
2023-01-28T17:28:57.964Z,81.93
2023-01-28T17:31:26.310Z,81.33
2023-01-28T17:33:54.959Z,82.11
2023-01-28T17:36:21.722Z,82.68
2023-01-28T17:38:48.583Z,81.44
2023-01-28T17:41:17.188Z,81.23
2023-01-28T17:43:43.732Z,81.79
2023-01-28T17:46:14.702Z,82.54
2023-01-28T17:48:42.894Z,82.72
2023-01-28T17:51:09.906Z,83.66
2023-01-28T17:53:36.312Z,85.38
2023-01-28T17:56:02.899Z,85.58
2023-01-28T17:58:29.588Z,86.82
2023-01-28T18:00:56.048Z,86.17
2023-01-28T18:03:22.615Z,86.16
2023-01-28T18:05:59.067Z,85.78
2023-01-28T18:08:26.119Z,85.94
2023-01-28T18:10:52.754Z,85.34
2023-01-28T18:13:19.135Z,85.19
2023-01-28T18:15:45.462Z,84.90
2023-01-28T18:18:11.849Z,83.06
2023-01-28T18:20:38.253Z,83.12
2023-01-28T18:23:04.715Z,82.06
2023-01-28T18:25:31.050Z,81.47
2023-01-28T18:27:57.398Z,80.76
2023-01-28T18:30:23.929Z,80.19
2023-01-28T18:32:50.556Z,80.36
2023-01-28T18:35:17.538Z,81.96
2023-01-28T18:37:44.100Z,82.74
2023-01-28T18:40:11.355Z,84.16
2023-01-28T18:42:37.845Z,83.74
2023-01-28T18:45:05.087Z,82.72
2023-01-28T18:47:31.495Z,81.49
2023-01-28T18:49:57.898Z,82.83
2023-01-28T18:52:24.367Z,83.34
2023-01-28T18:54:50.930Z,83.14
2023-01-28T18:57:19.356Z,82.78
2023-01-28T18:59:46.922Z,81.67
2023-01-28T19:02:14.713Z,82.89
2023-01-28T19:04:42.215Z,83.31
2023-01-28T19:07:11.767Z,81.58
2023-01-28T19:09:38.473Z,79.85
2023-01-28T19:12:06.172Z,81.45
2023-01-28T19:14:32.576Z,81.93
2023-01-28T19:16:59.249Z,82.25
2023-01-28T19:19:25.945Z,81.33
2023-01-28T19:21:53.453Z,81.83
2023-01-28T19:24:19.867Z,82.43
2023-01-28T19:26:46.371Z,82.48
2023-01-28T19:29:15.688Z,83.22
2023-01-28T19:31:43.561Z,81.77
2023-01-28T19:34:10.593Z,81.01
2023-01-28T19:36:37.508Z,81.42
2023-01-28T19:39:07.260Z,79.92
2023-01-28T19:41:34.389Z,80.01
2023-01-28T19:44:01.280Z,79.63
2023-01-28T19:46:28.139Z,79.25
2023-01-28T19:48:55.208Z,79.67
2023-01-28T19:51:21.801Z,80.08
2023-01-28T19:53:51.286Z,80.30
2023-01-28T19:56:19.342Z,79.74
2023-01-28T19:58:46.584Z,79.71
2023-01-28T20:01:15.705Z,81.49
2023-01-28T20:03:42.931Z,80.16
2023-01-28T20:06:15.385Z,80.74
2023-01-28T20:08:42.383Z,80.03
2023-01-28T20:11:15.503Z,79.35
2023-01-28T20:13:44.398Z,80.64
2023-01-28T20:16:16.452Z,80.75
2023-01-28T20:18:43.148Z,81.13
2023-01-28T20:21:09.583Z,80.98
2023-01-28T20:23:35.946Z,81.73
2023-01-28T20:26:02.469Z,82.48
2023-01-28T20:28:29.448Z,81.58
2023-01-28T20:30:56.593Z,79.71
2023-01-28T20:33:23.556Z,80.39
2023-01-28T20:35:49.992Z,79.97
2023-01-28T20:38:16.450Z,79.22
2023-01-28T20:40:43.851Z,80.73
2023-01-28T20:43:10.955Z,81.91
2023-01-28T20:45:37.587Z,82.72
2023-01-28T20:48:04.183Z,82.28
2023-01-28T20:50:30.595Z,84.05
2023-01-28T20:52:57.169Z,82.85
2023-01-28T20:55:23.661Z,82.00
2023-01-28T20:57:52.007Z,80.98
2023-01-28T21:00:19.052Z,80.29
2023-01-28T21:02:46.039Z,81.57
2023-01-28T21:05:12.816Z,82.78
2023-01-28T21:07:39.373Z,82.67
2023-01-28T21:10:06.672Z,82.90
2023-01-28T21:12:33.148Z,82.66
2023-01-28T21:14:59.504Z,82.37
2023-01-28T21:17:25.938Z,82.62
2023-01-28T21:19:52.465Z,82.48
2023-01-28T21:22:20.055Z,83.14
2023-01-28T21:24:48.912Z,83.21
2023-01-28T21:27:15.429Z,82.71
2023-01-28T21:29:42.122Z,83.57
2023-01-28T21:32:08.529Z,83.68
2023-01-28T21:34:34.968Z,84.45
2023-01-28T21:37:01.325Z,85.94
2023-01-28T21:39:27.680Z,86.10
2023-01-28T21:41:54.014Z,85.15
2023-01-28T21:44:20.574Z,85.77
2023-01-28T21:46:46.981Z,85.68
2023-01-28T21:49:13.713Z,86.03
2023-01-28T21:51:40.372Z,86.32
2023-01-28T21:54:11.494Z,86.61
2023-01-28T21:56:38.316Z,88.33
2023-01-28T21:59:23.374Z,86.84
2023-01-28T22:01:49.881Z,88.33
2023-01-28T22:04:16.456Z,88.61
2023-01-28T22:06:43.116Z,88.59
2023-01-28T22:09:11.867Z,88.33
2023-01-28T22:11:40.048Z,88.02
2023-01-28T22:14:07.122Z,89.30
2023-01-28T22:16:33.690Z,90.14
2023-01-28T22:19:00.158Z,87.78
2023-01-28T22:21:26.575Z,87.40
2023-01-28T22:23:53.063Z,85.94
2023-01-28T22:26:19.722Z,87.77
2023-01-28T22:28:46.197Z,87.63
2023-01-28T22:31:15.806Z,88.42
2023-01-28T22:33:42.743Z,89.04
2023-01-28T22:36:13.824Z,89.22
2023-01-28T22:38:42.567Z,88.98
2023-01-28T22:41:15.445Z,87.26
2023-01-28T22:43:41.974Z,86.45
2023-01-28T22:46:09.737Z,86.46
2023-01-28T22:48:37.402Z,85.61
2023-01-28T22:51:06.364Z,85.33
2023-01-28T22:53:33.477Z,82.39
2023-01-28T22:56:00.621Z,82.00
2023-01-28T22:58:27.085Z,82.24
2023-01-28T23:00:54.592Z,83.18
2023-01-28T23:03:21.582Z,83.60
2023-01-28T23:05:48.653Z,84.26
2023-01-28T23:08:15.143Z,85.08
2023-01-28T23:10:47.207Z,85.95
2023-01-28T23:13:17.094Z,85.86
2023-01-28T23:16:03.553Z,86.10
2023-01-28T23:18:48.960Z,85.49
2023-01-28T23:21:38.873Z,86.92
2023-01-28T23:24:20.792Z,86.58
2023-01-28T23:26:58.791Z,86.10
2023-01-28T23:29:28.367Z,86.78
2023-01-28T23:32:01.289Z,88.76
2023-01-28T23:34:31.722Z,88.35
2023-01-28T23:36:58.521Z,87.36
2023-01-28T23:39:24.967Z,87.91
2023-01-28T23:41:51.554Z,88.46
2023-01-28T23:44:18.568Z,86.90
2023-01-28T23:46:44.962Z,87.66
2023-01-28T23:49:11.381Z,86.61
2023-01-28T23:51:37.803Z,86.13
2023-01-28T23:54:04.336Z,85.86
2023-01-28T23:56:30.759Z,85.43
2023-01-28T23:58:57.305Z,84.82
